createdAt,value
2023-02-22T00:01:35.858Z,87.03
2023-02-22T00:04:05.217Z,87.72
2023-02-22T00:06:32.927Z,88.07
2023-02-22T00:09:02.302Z,89.32
2023-02-22T00:11:31.613Z,90.70
2023-02-22T00:13:58.799Z,85.93
2023-02-22T00:16:26.840Z,88.95
2023-02-22T00:18:54.043Z,86.28
2023-02-22T00:21:21.886Z,89.03
2023-02-22T00:23:49.821Z,88.90
2023-02-22T00:26:19.714Z,89.43
2023-02-22T00:28:53.621Z,87.97
2023-02-22T00:33:49.881Z,88.00
2023-02-22T00:36:17.765Z,92.43
2023-02-22T00:38:44.697Z,91.00
2023-02-22T00:41:12.521Z,91.03
2023-02-22T00:43:39.444Z,88.95
2023-02-22T00:46:06.432Z,87.60
2023-02-22T00:48:33.354Z,90.88
2023-02-22T00:51:00.323Z,90.88
2023-02-22T00:53:27.696Z,91.85
2023-02-22T00:55:54.744Z,91.43
2023-02-22T00:58:22.449Z,91.97
2023-02-22T01:00:50.037Z,91.00
2023-02-22T01:03:20.489Z,92.25
2023-02-22T01:05:47.808Z,91.15
2023-02-22T01:08:17.033Z,90.10
2023-02-22T01:10:44.503Z,90.03
2023-02-22T01:13:13.078Z,91.97
2023-02-22T01:15:42.951Z,90.50
2023-02-22T01:18:12.603Z,90.78
2023-02-22T01:20:39.578Z,92.95
2023-02-22T01:23:08.187Z,92.50
2023-02-22T01:25:35.857Z,92.82
2023-02-22T01:28:05.274Z,92.03
2023-02-22T01:30:34.243Z,90.90
2023-02-22T01:33:02.964Z,95.13
2023-02-22T01:35:32.995Z,92.22
2023-02-22T01:37:59.976Z,92.47
2023-02-22T01:40:30.396Z,94.07
2023-02-22T01:43:00.492Z,92.68
2023-02-22T01:45:30.355Z,92.88
2023-02-22T01:48:04.539Z,93.10
2023-02-22T01:50:35.592Z,92.90
2023-02-22T01:53:03.280Z,93.00
2023-02-22T01:55:31.873Z,95.18
2023-02-22T01:57:59.031Z,94.30
2023-02-22T02:00:27.731Z,93.38
2023-02-22T02:03:27.498Z,94.57
2023-02-22T02:05:58.835Z,89.10
2023-02-22T02:09:16.104Z,94.07
2023-02-22T02:11:43.399Z,95.65
2023-02-22T02:14:11.684Z,91.70
2023-02-22T02:16:48.110Z,91.35
2023-02-22T02:19:47.954Z,90.75
2023-02-22T02:22:26.589Z,92.28
2023-02-22T02:25:24.172Z,92.63
2023-02-22T02:28:21.789Z,94.93
2023-02-22T02:31:26.370Z,96.82
2023-02-22T02:34:02.135Z,90.95
2023-02-22T02:36:33.320Z,97.15
2023-02-22T02:39:19.570Z,95.28
2023-02-22T02:41:50.818Z,94.72
2023-02-22T02:44:31.092Z,96.55
2023-02-22T02:47:11.123Z,96.40
2023-02-22T02:49:48.325Z,93.95
2023-02-22T02:52:19.086Z,92.05
2023-02-22T02:54:48.693Z,95.35
2023-02-22T02:57:15.697Z,98.18
2023-02-22T02:59:43.189Z,95.38
2023-02-22T03:02:28.628Z,95.90
2023-02-22T03:05:15.115Z,98.18
2023-02-22T03:07:53.928Z,91.82
2023-02-22T03:10:45.558Z,95.32
2023-02-22T03:13:19.446Z,91.82
2023-02-22T03:15:53.737Z,96.75
2023-02-22T03:18:39.541Z,94.43
2023-02-22T03:21:21.657Z,93.20
2023-02-22T03:23:58.713Z,91.85
2023-02-22T03:26:33.912Z,95.68
2023-02-22T03:29:05.298Z,94.90
2023-02-22T03:31:39.983Z,95.85
2023-02-22T03:34:15.732Z,94.68
2023-02-22T03:36:50.143Z,92.28
2023-02-22T03:39:20.355Z,93.82
2023-02-22T03:41:52.927Z,94.32
2023-02-22T03:44:27.531Z,93.00
2023-02-22T03:46:57.836Z,95.07
2023-02-22T03:49:42.722Z,91.72
2023-02-22T03:52:11.976Z,95.95
2023-02-22T03:54:40.963Z,99.47
2023-02-22T03:57:28.270Z,93.72
2023-02-22T04:00:08.789Z,97.07
2023-02-22T04:02:41.862Z,95.78
2023-02-22T04:05:14.269Z,94.20
2023-02-22T04:07:42.709Z,93.47
2023-02-22T04:10:12.687Z,94.57
2023-02-22T04:12:39.781Z,96.65
2023-02-22T04:15:09.417Z,96.65
2023-02-22T04:17:36.852Z,96.18
2023-02-22T04:20:06.792Z,93.75
2023-02-22T04:22:54.997Z,95.68
2023-02-22T04:25:23.856Z,96.47
2023-02-22T04:27:52.753Z,92.93
2023-02-22T04:30:25.780Z,94.22
2023-02-22T04:32:53.207Z,89.97
2023-02-22T04:35:22.834Z,92.00
2023-02-22T04:37:49.769Z,90.75
2023-02-22T04:40:18.002Z,93.70
2023-02-22T04:42:45.018Z,94.80
2023-02-22T04:45:12.558Z,89.05
2023-02-22T04:47:39.995Z,91.90
2023-02-22T04:50:08.693Z,87.70
2023-02-22T04:52:36.106Z,88.10
2023-02-22T04:55:04.820Z,87.95
2023-02-22T04:57:32.824Z,83.75
2023-02-22T04:59:59.862Z,91.05
2023-02-22T05:02:27.148Z,89.45
2023-02-22T05:04:54.165Z,92.45
2023-02-22T05:07:21.129Z,86.18
2023-02-22T05:09:48.135Z,84.65
2023-02-22T05:12:15.301Z,87.97
2023-02-22T05:14:42.218Z,88.93
2023-02-22T05:17:09.256Z,85.10
2023-02-22T05:19:36.244Z,84.03
2023-02-22T05:22:05.698Z,86.25
2023-02-22T05:24:32.708Z,87.13
2023-02-22T05:26:59.711Z,86.97
2023-02-22T05:29:26.685Z,89.30
2023-02-22T05:31:53.781Z,90.72
2023-02-22T05:34:20.825Z,86.30
2023-02-22T05:36:47.791Z,85.88
2023-02-22T05:39:14.749Z,85.43
2023-02-22T05:41:41.640Z,90.30
2023-02-22T05:44:08.638Z,87.15
2023-02-22T05:46:35.778Z,85.38
2023-02-22T05:49:02.744Z,89.45
2023-02-22T05:51:29.731Z,86.25
2023-02-22T05:53:56.939Z,88.63
2023-02-22T05:56:29.130Z,85.75
2023-02-22T05:58:57.220Z,86.47
2023-02-22T06:01:24.658Z,87.75
2023-02-22T06:03:52.085Z,88.05
2023-02-22T06:06:22.212Z,86.15
2023-02-22T06:08:49.842Z,88.85
2023-02-22T06:11:17.251Z,84.18
2023-02-22T06:13:50.477Z,82.75
2023-02-22T06:16:17.458Z,86.28
2023-02-22T06:18:44.405Z,87.38
2023-02-22T06:21:11.325Z,84.28
2023-02-22T06:23:38.339Z,82.45
2023-02-22T06:26:05.793Z,85.18
2023-02-22T06:28:32.700Z,87.80
2023-02-22T06:30:59.630Z,87.57
2023-02-22T06:33:26.542Z,84.18
2023-02-22T06:35:53.478Z,85.57
2023-02-22T06:38:25.657Z,86.57
2023-02-22T06:40:52.599Z,88.32
2023-02-22T06:43:19.507Z,85.50
2023-02-22T06:45:46.726Z,87.82
2023-02-22T06:48:14.216Z,93.03
2023-02-22T06:50:41.170Z,86.88
2023-02-22T06:53:09.282Z,87.20
2023-02-22T06:55:36.561Z,87.15
2023-02-22T06:58:05.137Z,87.03
2023-02-22T07:00:32.766Z,88.28
2023-02-22T07:03:03.864Z,86.85
2023-02-22T07:05:30.952Z,85.13
2023-02-22T07:08:05.321Z,84.78
2023-02-22T07:10:34.156Z,88.53
2023-02-22T07:13:01.629Z,85.80
2023-02-22T07:15:30.396Z,84.95
2023-02-22T07:17:57.685Z,88.13
2023-02-22T07:20:26.807Z,85.20
2023-02-22T07:22:53.847Z,88.65
2023-02-22T07:25:22.691Z,82.78
2023-02-22T07:27:49.652Z,84.50
2023-02-22T07:30:18.819Z,82.55
2023-02-22T07:32:46.844Z,84.82
2023-02-22T07:35:19.081Z,82.82
2023-02-22T07:37:46.084Z,85.68
2023-02-22T07:40:13.035Z,83.72
2023-02-22T07:43:02.353Z,82.88
2023-02-22T07:45:36.224Z,82.90
2023-02-22T07:48:05.593Z,85.82
2023-02-22T07:50:33.843Z,86.70
2023-02-22T07:53:06.871Z,81.55
2023-02-22T07:55:34.704Z,85.82
2023-02-22T07:58:04.954Z,84.15
2023-02-22T08:00:40.332Z,82.95
2023-02-22T08:03:14.730Z,84.85
2023-02-22T08:05:45.194Z,86.78
2023-02-22T08:08:14.662Z,84.93
2023-02-22T08:10:42.668Z,88.72
2023-02-22T08:13:10.449Z,85.80
2023-02-22T08:15:39.784Z,87.05
2023-02-22T08:18:09.532Z,89.40
2023-02-22T08:20:38.504Z,91.97
2023-02-22T08:23:06.694Z,91.25
2023-02-22T08:25:33.920Z,88.72
2023-02-22T08:28:04.572Z,95.72
2023-02-22T08:30:32.918Z,95.20
2023-02-22T08:33:00.039Z,93.32
2023-02-22T08:35:27.726Z,91.32
2023-02-22T08:37:58.686Z,97.38
2023-02-22T08:40:27.973Z,92.32
2023-02-22T08:42:55.234Z,88.60
2023-02-22T08:45:22.251Z,96.82
2023-02-22T08:47:49.688Z,93.03
2023-02-22T08:50:23.402Z,91.28
2023-02-22T08:55:27.116Z,90.72
2023-02-22T08:57:54.070Z,74.80
2023-02-22T09:00:25.353Z,60.28
2023-02-22T09:02:53.087Z,63.25
2023-02-22T09:05:20.238Z,57.15
2023-02-22T09:07:47.640Z,66.70
2023-02-22T09:10:21.146Z,67.55
2023-02-22T09:12:48.103Z,65.88
2023-02-22T09:15:15.572Z,68.95
2023-02-22T09:17:42.555Z,69.00
2023-02-22T09:20:12.426Z,67.00
2023-02-22T09:22:39.779Z,64.60
2023-02-22T09:25:16.213Z,63.85
2023-02-22T09:27:44.191Z,54.70
2023-02-22T09:30:24.166Z,53.53
2023-02-22T09:32:55.742Z,50.15
2023-02-22T09:35:27.437Z,53.92
2023-02-22T09:37:59.312Z,63.28
2023-02-22T09:40:31.959Z,62.25
2023-02-22T09:43:33.737Z,60.45
2023-02-22T09:46:20.977Z,61.65
2023-02-22T09:48:59.888Z,58.25
2023-02-22T09:51:49.431Z,62.20
2023-02-22T09:54:22.780Z,61.78
2023-02-22T09:56:52.562Z,62.03
2023-02-22T09:59:30.081Z,62.05
2023-02-22T10:02:31.598Z,60.60
2023-02-22T10:05:37.871Z,61.47
2023-02-22T10:08:10.261Z,64.07
2023-02-22T10:10:39.728Z,60.95
2023-02-22T10:13:33.014Z,61.20
2023-02-22T10:16:33.822Z,62.47
2023-02-22T10:19:08.261Z,62.40
2023-02-22T10:21:58.220Z,62.15
2023-02-22T10:24:27.924Z,60.88
2023-02-22T10:26:57.917Z,63.97
2023-02-22T10:29:27.626Z,66.47
2023-02-22T10:31:59.311Z,65.15
2023-02-22T10:34:30.587Z,66.28
2023-02-22T10:37:25.635Z,67.15
2023-02-22T10:39:58.631Z,70.10
2023-02-22T10:42:27.542Z,73.90
2023-02-22T10:44:54.514Z,67.93
2023-02-22T10:47:23.078Z,69.35
2023-02-22T10:49:57.580Z,68.35
2023-02-22T10:52:34.651Z,68.72
2023-02-22T10:55:14.536Z,69.90
2023-02-22T10:57:46.253Z,70.35
2023-02-22T11:00:26.430Z,68.18
2023-02-22T11:03:02.533Z,67.47
2023-02-22T11:05:36.892Z,69.80
2023-02-22T11:08:17.181Z,72.60
2023-02-22T11:10:44.568Z,63.58
2023-02-22T11:13:18.724Z,68.78
2023-02-22T11:15:45.635Z,65.97
2023-02-22T11:18:35.619Z,67.90
2023-02-22T11:21:08.292Z,65.57
2023-02-22T11:23:37.654Z,68.13
2023-02-22T11:26:24.905Z,66.30
2023-02-22T11:28:56.340Z,70.15
2023-02-22T11:31:29.130Z,65.50
2023-02-22T11:33:59.882Z,65.17
2023-02-22T11:36:43.357Z,63.92
2023-02-22T11:39:27.660Z,66.03
2023-02-22T11:41:57.913Z,61.25
2023-02-22T11:44:30.636Z,65.07
2023-02-22T11:47:06.888Z,67.53
2023-02-22T11:49:41.552Z,63.83
2023-02-22T11:52:42.538Z,65.40
2023-02-22T11:55:42.372Z,65.05
2023-02-22T11:58:41.441Z,66.28
2023-02-22T12:01:30.246Z,64.18
2023-02-22T12:04:15.854Z,66.30
2023-02-22T12:06:52.019Z,63.90
2023-02-22T12:09:33.023Z,66.85
2023-02-22T12:12:28.134Z,67.22
2023-02-22T12:15:18.205Z,66.25
2023-02-22T12:18:18.597Z,70.50
2023-02-22T12:20:47.929Z,66.35
2023-02-22T12:23:33.587Z,67.75
2023-02-22T12:26:23.120Z,68.50
2023-02-22T12:29:01.434Z,70.13
2023-02-22T12:31:42.136Z,69.18
2023-02-22T12:34:27.350Z,71.22
2023-02-22T12:37:18.014Z,69.15
2023-02-22T12:40:08.873Z,70.40
2023-02-22T12:43:00.829Z,67.80
2023-02-22T12:45:46.460Z,67.38
2023-02-22T12:48:42.241Z,68.93
2023-02-22T12:51:14.800Z,67.15
2023-02-22T12:53:52.828Z,68.72
2023-02-22T12:56:34.086Z,67.03
2023-02-22T12:59:34.184Z,64.63
2023-02-22T13:02:22.537Z,69.55
2023-02-22T13:04:49.629Z,64.90
2023-02-22T13:07:30.571Z,66.60
2023-02-22T13:10:14.537Z,67.63
2023-02-22T13:12:57.700Z,67.75
2023-02-22T13:15:36.960Z,69.30
2023-02-22T13:18:19.088Z,69.22
2023-02-22T13:20:46.067Z,69.28
2023-02-22T13:23:25.749Z,69.20
2023-02-22T13:26:23.749Z,69.97
2023-02-22T13:29:16.473Z,70.97
2023-02-22T13:31:54.614Z,67.93
2023-02-22T13:34:40.313Z,69.60
2023-02-22T13:37:52.063Z,68.60
2023-02-22T13:40:30.954Z,72.00
2023-02-22T13:43:30.178Z,71.15
2023-02-22T13:46:29.300Z,66.65
2023-02-22T13:49:08.180Z,69.97
2023-02-22T13:51:59.040Z,68.03
2023-02-22T13:54:45.061Z,70.75
2023-02-22T13:57:25.798Z,70.30
2023-02-22T14:00:14.485Z,68.80
2023-02-22T14:03:01.025Z,70.55
2023-02-22T14:05:41.280Z,72.70
2023-02-22T14:08:28.162Z,70.35
2023-02-22T14:10:56.273Z,73.15
2023-02-22T14:13:27.774Z,70.32
2023-02-22T14:16:00.649Z,71.72
2023-02-22T14:18:31.749Z,71.35
2023-02-22T14:21:11.710Z,69.95
2023-02-22T14:23:42.934Z,70.70
2023-02-22T14:26:20.822Z,69.97
2023-02-22T14:29:02.786Z,71.82
2023-02-22T14:31:54.810Z,71.88
2023-02-22T14:34:41.862Z,69.95
2023-02-22T14:37:14.622Z,69.63
2023-02-22T14:39:46.797Z,72.30
2023-02-22T14:42:13.860Z,71.85
2023-02-22T14:44:51.423Z,70.43
2023-02-22T14:47:28.257Z,67.78
2023-02-22T14:50:03.749Z,68.97
2023-02-22T14:52:35.044Z,72.80
2023-02-22T14:55:24.357Z,69.55
2023-02-22T14:58:08.719Z,69.07
2023-02-22T15:00:45.904Z,70.05
2023-02-22T15:03:40.681Z,81.03
2023-02-22T15:06:14.905Z,69.30
2023-02-22T15:08:48.680Z,73.95
2023-02-22T15:11:31.119Z,71.13
2023-02-22T15:13:59.591Z,67.85
2023-02-22T15:16:34.205Z,71.70
2023-02-22T15:19:07.772Z,68.30
2023-02-22T15:21:35.563Z,69.75
2023-02-22T15:24:06.615Z,68.43
2023-02-22T15:26:49.038Z,70.93
2023-02-22T15:29:23.056Z,68.07
2023-02-22T15:31:50.895Z,66.88
2023-02-22T15:34:24.467Z,67.22
2023-02-22T15:36:56.261Z,71.82
2023-02-22T15:39:34.505Z,71.22
2023-02-22T15:42:20.813Z,69.82
2023-02-22T15:44:50.193Z,68.57
2023-02-22T15:47:20.241Z,69.78
2023-02-22T15:50:25.917Z,64.90
2023-02-22T15:53:04.012Z,70.38
2023-02-22T15:55:37.277Z,75.10
2023-02-22T15:58:10.881Z,73.25
2023-02-22T16:00:40.626Z,72.90
2023-02-22T16:03:13.609Z,68.80
2023-02-22T16:05:49.881Z,67.53
2023-02-22T16:08:29.343Z,68.53
2023-02-22T16:11:04.638Z,67.68
2023-02-22T16:13:35.882Z,72.93
2023-02-22T16:16:22.731Z,70.70
2023-02-22T16:18:51.536Z,70.45
2023-02-22T16:21:21.659Z,69.50
2023-02-22T16:23:51.847Z,72.28
2023-02-22T16:26:33.782Z,70.88
2023-02-22T16:29:07.567Z,72.93
2023-02-22T16:34:08.168Z,72.47
2023-02-22T16:36:51.596Z,72.18
2023-02-22T16:39:29.938Z,71.22
2023-02-22T16:42:03.792Z,75.20
2023-02-22T16:44:31.383Z,74.15
2023-02-22T16:47:00.602Z,71.30
2023-02-22T16:49:27.801Z,75.78
2023-02-22T16:51:58.825Z,75.38
2023-02-22T16:54:34.429Z,77.13
2023-02-22T16:57:03.958Z,74.43
2023-02-22T16:59:38.639Z,71.63
2023-02-22T17:02:10.121Z,70.63
2023-02-22T17:04:37.059Z,71.10
2023-02-22T17:07:05.412Z,71.10
2023-02-22T17:09:32.958Z,69.28
2023-02-22T17:12:00.340Z,74.80
2023-02-22T17:14:33.599Z,72.57
2023-02-22T17:17:00.613Z,72.50
2023-02-22T17:19:27.543Z,76.45
2023-02-22T17:21:54.781Z,76.22
2023-02-22T17:24:24.717Z,72.72
2023-02-22T17:26:53.166Z,75.15
2023-02-22T17:29:20.678Z,72.70
2023-02-22T17:31:48.991Z,73.50
2023-02-22T17:34:16.251Z,73.72
2023-02-22T17:36:43.660Z,72.72
2023-02-22T17:39:11.030Z,75.97
2023-02-22T17:41:40.457Z,75.13
2023-02-22T17:44:07.815Z,79.95
2023-02-22T17:46:36.704Z,79.38
2023-02-22T17:49:03.726Z,83.30
2023-02-22T17:51:30.706Z,86.50
2023-02-22T17:53:57.663Z,103.25
2023-02-22T17:56:24.645Z,105.32
2023-02-22T17:58:54.366Z,96.07
2023-02-22T18:01:24.970Z,91.72
2023-02-22T18:03:53.237Z,85.70
2023-02-22T18:06:25.164Z,82.15
2023-02-22T18:08:55.528Z,81.40
2023-02-22T18:11:26.586Z,75.53
2023-02-22T18:13:58.444Z,75.47
2023-02-22T18:16:26.778Z,75.32
2023-02-22T18:18:55.155Z,73.63
2023-02-22T18:21:23.344Z,73.00
2023-02-22T18:23:50.361Z,76.07
2023-02-22T18:26:20.377Z,75.30
2023-02-22T18:28:50.833Z,76.65
2023-02-22T18:31:20.193Z,76.90
2023-02-22T18:33:50.503Z,75.90
2023-02-22T18:36:23.000Z,74.68
2023-02-22T18:38:52.526Z,75.63
2023-02-22T18:41:25.098Z,75.85
2023-02-22T18:43:54.073Z,78.25
2023-02-22T18:46:23.120Z,75.72
2023-02-22T18:48:54.600Z,78.65
2023-02-22T18:51:22.692Z,77.07
2023-02-22T18:53:50.142Z,82.60
2023-02-22T18:56:22.510Z,85.68
2023-02-22T18:58:58.712Z,83.53
2023-02-22T19:01:26.245Z,81.20
2023-02-22T19:03:53.590Z,80.80
2023-02-22T19:06:23.722Z,81.43
2023-02-22T19:08:51.181Z,81.93
2023-02-22T19:11:21.899Z,79.47
2023-02-22T19:13:51.666Z,81.28
2023-02-22T19:16:21.336Z,78.15
2023-02-22T19:18:50.095Z,78.68
2023-02-22T19:21:17.452Z,80.60
2023-02-22T19:23:48.634Z,78.43
2023-02-22T19:26:21.169Z,82.13
2023-02-22T19:28:49.073Z,80.68
2023-02-22T19:31:31.551Z,81.85
2023-02-22T19:34:09.153Z,80.80
2023-02-22T19:36:41.492Z,79.22
2023-02-22T19:39:09.743Z,80.68
2023-02-22T19:41:36.794Z,79.85
2023-02-22T19:44:05.182Z,80.20
2023-02-22T19:46:32.464Z,80.07
2023-02-22T19:49:00.790Z,81.03
2023-02-22T19:51:29.669Z,80.32
2023-02-22T19:53:59.143Z,83.18
2023-02-22T19:56:31.015Z,79.20
2023-02-22T19:59:09.236Z,76.88
2023-02-22T20:01:37.132Z,76.15
2023-02-22T20:04:06.733Z,80.88
2023-02-22T20:06:42.734Z,79.05
2023-02-22T20:09:12.992Z,76.65
2023-02-22T20:11:40.389Z,79.78
2023-02-22T20:14:07.359Z,81.28
2023-02-22T20:16:35.726Z,79.85
2023-02-22T20:19:02.845Z,82.65
2023-02-22T20:21:31.923Z,80.50
2023-02-22T20:24:03.007Z,79.22
2023-02-22T20:26:32.100Z,79.15
2023-02-22T20:28:59.382Z,80.22
2023-02-22T20:31:26.970Z,82.32
2023-02-22T20:33:55.994Z,80.55
2023-02-22T20:36:23.249Z,77.03
2023-02-22T20:38:59.146Z,79.82
2023-02-22T20:41:31.569Z,81.47
2023-02-22T20:43:59.952Z,78.38
2023-02-22T20:46:31.323Z,78.55
2023-02-22T20:49:01.285Z,78.07
2023-02-22T20:51:29.478Z,80.40
2023-02-22T20:54:00.275Z,79.88
2023-02-22T20:56:29.481Z,78.07
2023-02-22T20:59:01.939Z,79.72
2023-02-22T21:01:29.558Z,79.88
2023-02-22T21:04:01.388Z,77.28
2023-02-22T21:06:29.058Z,78.35
2023-02-22T21:08:58.437Z,78.80
2023-02-22T21:11:27.505Z,78.78
2023-02-22T21:13:54.764Z,79.10
2023-02-22T21:16:30.418Z,79.45
2023-02-22T21:19:00.835Z,79.03
2023-02-22T21:21:29.193Z,80.90
2023-02-22T21:24:01.748Z,79.90
2023-02-22T21:26:31.944Z,79.40
2023-02-22T21:29:04.739Z,79.57
2023-02-22T21:31:33.081Z,79.53
2023-02-22T21:34:01.165Z,82.45
2023-02-22T21:36:28.877Z,81.13
2023-02-22T21:39:02.046Z,79.13
2023-02-22T21:41:30.982Z,81.28
2023-02-22T21:43:59.282Z,82.65
2023-02-22T21:46:29.224Z,81.07
2023-02-22T21:48:58.619Z,79.18
2023-02-22T21:51:32.090Z,79.30
2023-02-22T21:54:01.477Z,81.72
2023-02-22T21:56:30.151Z,79.25
2023-02-22T21:59:03.501Z,81.22
2023-02-22T22:01:36.582Z,84.00
2023-02-22T22:04:04.899Z,81.60
2023-02-22T22:06:34.408Z,82.53
2023-02-22T22:09:04.993Z,79.63
2023-02-22T22:11:32.906Z,79.90
2023-02-22T22:14:00.485Z,79.50
2023-02-22T22:16:29.701Z,78.53
2023-02-22T22:18:57.291Z,77.80
2023-02-22T22:21:26.230Z,80.82
2023-02-22T22:23:57.507Z,80.30
2023-02-22T22:26:26.062Z,77.57
2023-02-22T22:28:59.209Z,78.97
2023-02-22T22:31:27.660Z,83.88
2023-02-22T22:33:56.359Z,81.50
2023-02-22T22:36:25.171Z,80.75
2023-02-22T22:38:52.886Z,78.43
2023-02-22T22:41:22.023Z,80.35
2023-02-22T22:43:49.016Z,80.22
2023-02-22T22:46:17.528Z,76.93
2023-02-22T22:48:49.254Z,81.45
2023-02-22T22:51:20.446Z,77.88
2023-02-22T22:53:49.829Z,79.13
2023-02-22T22:56:29.306Z,79.50
2023-02-22T22:58:58.789Z,79.50
2023-02-22T23:01:33.023Z,78.93
2023-02-22T23:04:02.481Z,80.32
2023-02-22T23:06:33.128Z,80.20
2023-02-22T23:09:01.849Z,79.55
2023-02-22T23:11:33.667Z,84.20
2023-02-22T23:14:03.642Z,80.57
2023-02-22T23:16:32.307Z,80.03
2023-02-22T23:18:59.317Z,80.10
2023-02-22T23:21:26.277Z,79.55
2023-02-22T23:23:58.627Z,81.55
2023-02-22T23:26:26.879Z,81.15
2023-02-22T23:28:59.187Z,78.45
2023-02-22T23:31:29.396Z,80.80
2023-02-22T23:33:58.974Z,77.50
2023-02-22T23:36:26.653Z,77.43
2023-02-22T23:38:54.261Z,80.97
2023-02-22T23:41:25.043Z,78.75
2023-02-22T23:43:52.018Z,77.40
2023-02-22T23:46:19.279Z,77.60
2023-02-22T23:48:54.628Z,79.35
2023-02-22T23:51:25.614Z,74.53
2023-02-22T23:53:55.830Z,78.03
2023-02-22T23:56:26.534Z,75.43
2023-02-22T23:58:57.461Z,75.65
